sensor_id;sensor_type;location;lat;lon;timestamp;pressure;altitude;pressure_sealevel;temperature;humidity
65157;BME280;52745;49.794;18.258;2023-05-23T00:01:16;-16293.28;;;13.35;82.85
65157;BME280;52745;49.794;18.258;2023-05-23T00:03:43;-16291.78;;;13.29;83.16
65157;BME280;52745;49.794;18.258;2023-05-23T00:06:10;-16290.69;;;13.25;83.85
65157;BME280;52745;49.794;18.258;2023-05-23T00:08:37;-16288.50;;;13.17;84.17
65157;BME280;52745;49.794;18.258;2023-05-23T00:11:04;-16287.28;;;13.12;84.10
65157;BME280;52745;49.794;18.258;2023-05-23T00:13:30;-16286.34;;;13.09;84.38
65157;BME280;52745;49.794;18.258;2023-05-23T00:16:00;-16286.19;;;13.08;85.58
65157;BME280;52745;49.794;18.258;2023-05-23T00:18:27;-16285.78;;;13.07;85.99
65157;BME280;52745;49.794;18.258;2023-05-23T00:20:56;-16284.97;;;13.03;86.00
65157;BME280;52745;49.794;18.258;2023-05-23T00:23:22;-16284.56;;;13.02;85.72
65157;BME280;52745;49.794;18.258;2023-05-23T00:25:50;-16283.19;;;12.97;85.76
65157;BME280;52745;49.794;18.258;2023-05-23T00:28:21;-16282.50;;;12.94;86.16
65157;BME280;52745;49.794;18.258;2023-05-23T00:30:48;-16281.84;;;12.92;86.06
65157;BME280;52745;49.794;18.258;2023-05-23T00:33:18;-16281.16;;;12.89;86.54
65157;BME280;52745;49.794;18.258;2023-05-23T00:35:47;-16280.06;;;12.85;87.20
65157;BME280;52745;49.794;18.258;2023-05-23T00:38:14;-16279.53;;;12.83;87.92
65157;BME280;52745;49.794;18.258;2023-05-23T00:40:41;-16279.78;;;12.84;87.67
65157;BME280;52745;49.794;18.258;2023-05-23T00:43:08;-16280.06;;;12.85;87.50
65157;BME280;52745;49.794;18.258;2023-05-23T00:45:35;-16278.97;;;12.81;87.49
65157;BME280;52745;49.794;18.258;2023-05-23T00:48:03;-16277.75;;;12.76;88.51
65157;BME280;52745;49.794;18.258;2023-05-23T00:50:30;-16276.66;;;12.72;88.45
65157;BME280;52745;49.794;18.258;2023-05-23T00:52:57;-16275.44;;;12.68;88.51
65157;BME280;52745;49.794;18.258;2023-05-23T00:55:26;-16275.72;;;12.69;88.72
65157;BME280;52745;49.794;18.258;2023-05-23T00:57:54;-16274.34;;;12.63;89.15
65157;BME280;52745;49.794;18.258;2023-05-23T01:00:24;-16272.84;;;12.58;89.42
65157;BME280;52745;49.794;18.258;2023-05-23T01:02:51;-16270.53;;;12.49;90.23
65157;BME280;52745;49.794;18.258;2023-05-23T01:05:19;-16271.09;;;12.51;90.15
65157;BME280;52745;49.794;18.258;2023-05-23T01:07:48;-16269.72;;;12.46;90.11
65157;BME280;52745;49.794;18.258;2023-05-23T01:10:20;-16268.34;;;12.41;90.61
65157;BME280;52745;49.794;18.258;2023-05-23T01:16:15;-16266.72;;;12.35;91.06
65157;BME280;52745;49.794;18.258;2023-05-23T01:19:16;-16265.34;;;12.30;91.47
65157;BME280;52745;49.794;18.258;2023-05-23T01:21:52;-16264.53;;;12.27;92.02
65157;BME280;52745;49.794;18.258;2023-05-23T01:24:46;-16263.31;;;12.22;91.83
65157;BME280;52745;49.794;18.258;2023-05-23T01:30:07;-16260.88;;;12.13;92.86
65157;BME280;52745;49.794;18.258;2023-05-23T01:32:36;-16260.19;;;12.10;93.41
65157;BME280;52745;49.794;18.258;2023-05-23T01:35:03;-16259.22;;;12.07;93.49
65157;BME280;52745;49.794;18.258;2023-05-23T01:37:31;-16258.28;;;12.03;93.29
65157;BME280;52745;49.794;18.258;2023-05-23T01:39:57;-16257.47;;;12.00;93.58
65157;BME280;52745;49.794;18.258;2023-05-23T01:42:24;-16256.91;;;11.98;94.92
65157;BME280;52745;49.794;18.258;2023-05-23T01:44:53;-16254.31;;;11.88;95.49
65157;BME280;52745;49.794;18.258;2023-05-23T01:47:20;-16254.19;;;11.88;95.63
65157;BME280;52745;49.794;18.258;2023-05-23T01:49:47;-16252.56;;;11.81;95.88
65157;BME280;52745;49.794;18.258;2023-05-23T01:52:15;-16252.00;;;11.79;96.28
65157;BME280;52745;49.794;18.258;2023-05-23T01:54:43;-16250.78;;;11.75;96.40
65157;BME280;52745;49.794;18.258;2023-05-23T01:57:11;-16248.19;;;11.65;96.90
65157;BME280;52745;49.794;18.258;2023-05-23T01:59:38;-16247.66;;;11.63;97.21
65157;BME280;52745;49.794;18.258;2023-05-23T02:02:05;-16246.28;;;11.58;97.34
65157;BME280;52745;49.794;18.258;2023-05-23T02:04:32;-16245.34;;;11.54;97.80
65157;BME280;52745;49.794;18.258;2023-05-23T02:06:58;-16244.09;;;11.50;99.00
65157;BME280;52745;49.794;18.258;2023-05-23T02:09:25;-16243.16;;;11.46;98.88
65157;BME280;52745;49.794;18.258;2023-05-23T02:11:52;-16242.75;;;11.45;98.99
65157;BME280;52745;49.794;18.258;2023-05-23T02:14:20;-16242.34;;;11.43;98.49
65157;BME280;52745;49.794;18.258;2023-05-23T02:16:47;-16241.09;;;11.38;98.25
65157;BME280;52745;49.794;18.258;2023-05-23T02:19:14;-16239.59;;;11.33;98.08
65157;BME280;52745;49.794;18.258;2023-05-23T02:21:40;-16238.94;;;11.30;98.28
65157;BME280;52745;49.794;18.258;2023-05-23T02:24:07;-16240.00;;;11.34;98.31
65157;BME280;52745;49.794;18.258;2023-05-23T02:26:34;-16239.75;;;11.33;98.48
65157;BME280;52745;49.794;18.258;2023-05-23T02:29:00;-16238.38;;;11.28;98.17
65157;BME280;52745;49.794;18.258;2023-05-23T02:31:27;-16238.66;;;11.29;97.71
65157;BME280;52745;49.794;18.258;2023-05-23T02:33:54;-16238.38;;;11.28;98.08
65157;BME280;52745;49.794;18.258;2023-05-23T02:36:22;-16237.56;;;11.25;97.86
65157;BME280;52745;49.794;18.258;2023-05-23T02:38:48;-16237.84;;;11.26;97.80
65157;BME280;52745;49.794;18.258;2023-05-23T02:41:15;-16236.75;;;11.22;97.90
65157;BME280;52745;49.794;18.258;2023-05-23T02:43:45;-16236.59;;;11.22;97.60
65157;BME280;52745;49.794;18.258;2023-05-23T02:46:12;-16236.75;;;11.22;97.58
65157;BME280;52745;49.794;18.258;2023-05-23T02:48:39;-16237.84;;;11.26;97.19
65157;BME280;52745;49.794;18.258;2023-05-23T02:51:05;-16238.94;;;11.30;97.13
65157;BME280;52745;49.794;18.258;2023-05-23T02:53:32;-16237.03;;;11.23;97.77
65157;BME280;52745;49.794;18.258;2023-05-23T02:55:59;-16236.47;;;11.21;97.84
65157;BME280;52745;49.794;18.258;2023-05-23T02:58:25;-16236.34;;;11.21;98.07
65157;BME280;52745;49.794;18.258;2023-05-23T03:00:52;-16234.97;;;11.15;98.62
65157;BME280;52745;49.794;18.258;2023-05-23T03:03:19;-16234.03;;;11.12;98.84
65157;BME280;52745;49.794;18.258;2023-05-23T03:05:46;-16233.88;;;11.11;98.99
65157;BME280;52745;49.794;18.258;2023-05-23T03:08:12;-16233.47;;;11.10;99.32
65157;BME280;52745;49.794;18.258;2023-05-23T03:10:39;-16233.47;;;11.10;99.45
65157;BME280;52745;49.794;18.258;2023-05-23T03:13:06;-16232.94;;;11.08;100.00
65157;BME280;52745;49.794;18.258;2023-05-23T03:15:34;-16232.53;;;11.06;100.00
65157;BME280;52745;49.794;18.258;2023-05-23T03:18:01;-16232.38;;;11.06;100.00
65157;BME280;52745;49.794;18.258;2023-05-23T03:20:28;-16233.19;;;11.09;99.83
65157;BME280;52745;49.794;18.258;2023-05-23T03:22:54;-16233.75;;;11.11;99.50
65157;BME280;52745;49.794;18.258;2023-05-23T03:25:23;-16234.56;;;11.14;99.30
65157;BME280;52745;49.794;18.258;2023-05-23T03:27:49;-16234.56;;;11.14;99.10
65157;BME280;52745;49.794;18.258;2023-05-23T03:30:16;-16234.03;;;11.12;99.27
65157;BME280;52745;49.794;18.258;2023-05-23T03:32:43;-16234.16;;;11.12;99.00
65157;BME280;52745;49.794;18.258;2023-05-23T03:35:10;-16233.75;;;11.11;98.60
65157;BME280;52745;49.794;18.258;2023-05-23T03:37:36;-16234.97;;;11.15;98.27
65157;BME280;52745;49.794;18.258;2023-05-23T03:40:04;-16235.78;;;11.18;98.01
65157;BME280;52745;49.794;18.258;2023-05-23T03:42:32;-16236.47;;;11.21;98.02
65157;BME280;52745;49.794;18.258;2023-05-23T03:44:59;-16237.03;;;11.23;97.96
65157;BME280;52745;49.794;18.258;2023-05-23T03:47:26;-16237.03;;;11.23;98.06
65157;BME280;52745;49.794;18.258;2023-05-23T03:49:54;-16237.44;;;11.25;97.54
65157;BME280;52745;49.794;18.258;2023-05-23T03:52:21;-16238.09;;;11.27;97.28
65157;BME280;52745;49.794;18.258;2023-05-23T03:54:48;-16238.38;;;11.28;97.55
65157;BME280;52745;49.794;18.258;2023-05-23T03:57:15;-16238.78;;;11.30;97.42
65157;BME280;52745;49.794;18.258;2023-05-23T03:59:42;-16240.00;;;11.34;97.55
65157;BME280;52745;49.794;18.258;2023-05-23T04:02:11;-16241.66;;;11.41;97.25
65157;BME280;52745;49.794;18.258;2023-05-23T04:04:38;-16242.19;;;11.43;96.36
65157;BME280;52745;49.794;18.258;2023-05-23T04:07:05;-16243.28;;;11.47;96.36
65157;BME280;52745;49.794;18.258;2023-05-23T04:09:32;-16243.81;;;11.49;96.17
65157;BME280;52745;49.794;18.258;2023-05-23T04:11:59;-16246.16;;;11.57;96.43
65157;BME280;52745;49.794;18.258;2023-05-23T04:14:27;-16247.91;;;11.64;95.72
65157;BME280;52745;49.794;18.258;2023-05-23T04:16:56;-16249.69;;;11.71;95.20
65157;BME280;52745;49.794;18.258;2023-05-23T04:19:23;-16250.38;;;11.73;94.56
65157;BME280;52745;49.794;18.258;2023-05-23T04:21:51;-16252.56;;;11.81;94.25
65157;BME280;52745;49.794;18.258;2023-05-23T04:24:18;-16252.69;;;11.82;93.85
65157;BME280;52745;49.794;18.258;2023-05-23T04:26:44;-16253.78;;;11.86;94.36
65157;BME280;52745;49.794;18.258;2023-05-23T04:29:11;-16256.38;;;11.96;93.44
65157;BME280;52745;49.794;18.258;2023-05-23T04:31:38;-16258.69;;;12.05;93.39
65157;BME280;52745;49.794;18.258;2023-05-23T04:34:05;-16260.47;;;12.11;93.35
65157;BME280;52745;49.794;18.258;2023-05-23T04:36:37;-16263.03;;;12.21;92.50
65157;BME280;52745;49.794;18.258;2023-05-23T04:39:04;-16265.63;;;12.31;91.68
65157;BME280;52745;49.794;18.258;2023-05-23T04:41:34;-16266.84;;;12.35;91.66
65157;BME280;52745;49.794;18.258;2023-05-23T04:44:11;-16269.16;;;12.44;90.99
65157;BME280;52745;49.794;18.258;2023-05-23T04:46:42;-16270.41;;;12.49;89.66
65157;BME280;52745;49.794;18.258;2023-05-23T04:49:17;-16271.63;;;12.53;89.63
65157;BME280;52745;49.794;18.258;2023-05-23T04:51:47;-16273.81;;;12.61;89.28
65157;BME280;52745;49.794;18.258;2023-05-23T04:54:26;-16276.38;;;12.71;89.12
65157;BME280;52745;49.794;18.258;2023-05-23T04:56:54;-16279.53;;;12.83;89.22
65157;BME280;52745;49.794;18.258;2023-05-23T04:59:23;-16281.44;;;12.90;89.38
65157;BME280;52745;49.794;18.258;2023-05-23T05:01:50;-16283.47;;;12.98;88.97
65157;BME280;52745;49.794;18.258;2023-05-23T05:04:18;-16286.06;;;13.08;88.74
65157;BME280;52745;49.794;18.258;2023-05-23T05:06:45;-16288.50;;;13.17;87.73
65157;BME280;52745;49.794;18.258;2023-05-23T05:09:13;-16290.13;;;13.23;86.92
65157;BME280;52745;49.794;18.258;2023-05-23T05:11:42;-16293.13;;;13.34;86.38
65157;BME280;52745;49.794;18.258;2023-05-23T05:14:09;-16295.72;;;13.44;85.69
65157;BME280;52745;49.794;18.258;2023-05-23T05:16:36;-16298.44;;;13.54;85.60
65157;BME280;52745;49.794;18.258;2023-05-23T05:19:03;-16301.44;;;13.65;84.65
65157;BME280;52745;49.794;18.258;2023-05-23T05:21:31;-16302.94;;;13.71;84.29
65157;BME280;52745;49.794;18.258;2023-05-23T05:23:58;-16303.88;;;13.75;84.76
65157;BME280;52745;49.794;18.258;2023-05-23T05:26:26;-16306.63;;;13.85;84.43
65157;BME280;52745;49.794;18.258;2023-05-23T05:28:53;-16311.09;;;14.02;84.78
65157;BME280;52745;49.794;18.258;2023-05-23T05:31:21;-16313.00;;;14.09;83.70
65157;BME280;52745;49.794;18.258;2023-05-23T05:33:48;-16314.63;;;14.15;83.05
65157;BME280;52745;49.794;18.258;2023-05-23T05:36:16;-16316.81;;;14.23;83.00
65157;BME280;52745;49.794;18.258;2023-05-23T05:38:43;-16319.00;;;14.32;82.26
65157;BME280;52745;49.794;18.258;2023-05-23T05:41:10;-16321.72;;;14.42;82.45
65157;BME280;52745;49.794;18.258;2023-05-23T05:43:42;-16324.56;;;14.53;81.83
65157;BME280;52745;49.794;18.258;2023-05-23T05:46:10;-16327.84;;;14.65;79.43
65157;BME280;52745;49.794;18.258;2023-05-23T05:48:37;-16331.50;;;14.79;79.19
65157;BME280;52745;49.794;18.258;2023-05-23T05:51:07;-16333.97;;;14.88;77.76
65157;BME280;52745;49.794;18.258;2023-05-23T05:53:34;-16335.19;;;14.93;77.94
65157;BME280;52745;49.794;18.258;2023-05-23T05:56:01;-16337.50;;;15.01;77.89
65157;BME280;52745;49.794;18.258;2023-05-23T05:58:29;-16340.47;;;15.13;76.82
65157;BME280;52745;49.794;18.258;2023-05-23T06:01:04;-16344.97;;;15.29;75.95
65157;BME280;52745;49.794;18.258;2023-05-23T06:03:32;-16347.16;;;15.38;74.66
65157;BME280;52745;49.794;18.258;2023-05-23T06:05:59;-16350.69;;;15.51;74.13
65157;BME280;52745;49.794;18.258;2023-05-23T06:08:26;-16353.13;;;15.60;73.86
65157;BME280;52745;49.794;18.258;2023-05-23T06:10:53;-16356.81;;;15.74;74.77
65157;BME280;52745;49.794;18.258;2023-05-23T06:13:19;-16360.06;;;15.86;74.57
65157;BME280;52745;49.794;18.258;2023-05-23T06:15:51;-16363.31;;;15.99;72.64
65157;BME280;52745;49.794;18.258;2023-05-23T06:18:18;-16368.06;;;16.17;72.35
65157;BME280;52745;49.794;18.258;2023-05-23T06:20:45;-16371.19;;;16.28;71.43
65157;BME280;52745;49.794;18.258;2023-05-23T06:23:15;-16372.84;;;16.34;71.71
65157;BME280;52745;49.794;18.258;2023-05-23T06:25:42;-16375.28;;;16.44;71.02
65157;BME280;52745;49.794;18.258;2023-05-23T06:28:08;-16378.00;;;16.54;70.51
65157;BME280;52745;49.794;18.258;2023-05-23T06:30:35;-16381.25;;;16.66;71.97
65157;BME280;52745;49.794;18.258;2023-05-23T06:33:03;-16383.56;;;16.75;71.58
65157;BME280;52745;49.794;18.258;2023-05-23T06:35:30;-16385.31;;;16.82;72.24
65157;BME280;52745;49.794;18.258;2023-05-23T06:37:57;-16388.84;;;16.95;71.46
65157;BME280;52745;49.794;18.258;2023-05-23T06:40:24;-16391.31;;;17.04;70.42
65157;BME280;52745;49.794;18.258;2023-05-23T06:42:51;-16396.19;;;17.23;70.76
65157;BME280;52745;49.794;18.258;2023-05-23T06:45:37;-16401.63;;;17.43;70.74
65157;BME280;52745;49.794;18.258;2023-05-23T06:48:04;-16408.00;;;17.67;68.84
65157;BME280;52745;49.794;18.258;2023-05-23T06:50:33;-16410.56;;;17.77;67.95
65157;BME280;52745;49.794;18.258;2023-05-23T06:53:00;-16414.66;;;17.92;66.28
65157;BME280;52745;49.794;18.258;2023-05-23T06:55:27;-16417.22;;;18.02;66.55
65157;BME280;52745;49.794;18.258;2023-05-23T06:57:55;-16418.19;;;18.06;67.87
65157;BME280;52745;49.794;18.258;2023-05-23T07:00:23;-16421.31;;;18.17;67.07
65157;BME280;52745;49.794;18.258;2023-05-23T07:03:06;-16422.53;;;18.22;66.04
65157;BME280;52745;49.794;18.258;2023-05-23T07:05:33;-16425.50;;;18.33;65.75
65157;BME280;52745;49.794;18.258;2023-05-23T07:08:02;-16426.06;;;18.35;64.56
65157;BME280;52745;49.794;18.258;2023-05-23T07:10:30;-16430.66;;;18.53;64.35
65157;BME280;52745;49.794;18.258;2023-05-23T07:13:06;-16437.31;;;18.78;61.04
65157;BME280;52745;49.794;18.258;2023-05-23T07:15:36;-16443.97;;;19.03;62.13
65157;BME280;52745;49.794;18.258;2023-05-23T07:18:09;-16450.19;;;19.27;62.32
65157;BME280;52745;49.794;18.258;2023-05-23T07:20:37;-16454.13;;;19.41;60.05
65157;BME280;52745;49.794;18.258;2023-05-23T07:23:11;-16462.13;;;19.72;58.09
65157;BME280;52745;49.794;18.258;2023-05-23T07:25:40;-16487.06;;;20.66;57.23
65157;BME280;52745;49.794;18.258;2023-05-23T07:28:12;-16530.91;;;22.32;50.76
65157;BME280;52745;49.794;18.258;2023-05-23T07:30:40;-16564.59;;;23.60;46.59
65157;BME280;52745;49.794;18.258;2023-05-23T07:33:07;-16597.69;;;24.85;42.48
65157;BME280;52745;49.794;18.258;2023-05-23T07:35:34;-16623.72;;;25.84;39.94
65157;BME280;52745;49.794;18.258;2023-05-23T07:38:02;-16648.53;;;26.78;38.12
65157;BME280;52745;49.794;18.258;2023-05-23T07:40:30;-16668.06;;;27.53;36.47
65157;BME280;52745;49.794;18.258;2023-05-23T07:42:56;-16689.63;;;28.35;35.43
65157;BME280;52745;49.794;18.258;2023-05-23T07:45:23;-16707.38;;;29.02;34.12
65157;BME280;52745;49.794;18.258;2023-05-23T07:47:50;-16719.75;;;29.49;33.73
65157;BME280;52745;49.794;18.258;2023-05-23T07:50:18;-16723.53;;;29.64;33.48
65157;BME280;52745;49.794;18.258;2023-05-23T07:52:45;-16735.75;;;30.10;33.92
65157;BME280;52745;49.794;18.258;2023-05-23T07:55:15;-16750.41;;;30.66;32.73
65157;BME280;52745;49.794;18.258;2023-05-23T07:57:41;-16764.09;;;31.19;32.97
65157;BME280;52745;49.794;18.258;2023-05-23T08:00:10;-16779.53;;;31.78;29.04
65157;BME280;52745;49.794;18.258;2023-05-23T08:02:43;-16781.81;;;31.86;30.24
65157;BME280;52745;49.794;18.258;2023-05-23T08:05:18;-16775.13;;;31.61;28.56
65157;BME280;52745;49.794;18.258;2023-05-23T08:07:47;-16762.75;;;31.13;27.23
65157;BME280;52745;49.794;18.258;2023-05-23T08:10:14;-16783.97;;;31.94;27.26
65157;BME280;52745;49.794;18.258;2023-05-23T08:12:41;-16783.28;;;31.92;26.51
65157;BME280;52745;49.794;18.258;2023-05-23T08:15:14;-16801.53;;;32.62;26.79
65157;BME280;52745;49.794;18.258;2023-05-23T08:17:45;-16809.97;;;32.94;26.75
65157;BME280;52745;49.794;18.258;2023-05-23T08:20:11;-16806.38;;;32.80;26.83
65157;BME280;52745;49.794;18.258;2023-05-23T08:22:38;-16818.16;;;33.25;28.22
65157;BME280;52745;49.794;18.258;2023-05-23T08:25:05;-16824.47;;;33.49;25.45
65157;BME280;52745;49.794;18.258;2023-05-23T08:27:35;-16825.53;;;33.53;25.65
65157;BME280;52745;49.794;18.258;2023-05-23T09:46:36;-16770.56;;;31.43;31.54
65157;BME280;52745;49.794;18.258;2023-05-23T09:49:14;-16800.34;;;32.57;31.90
65157;BME280;52745;49.794;18.258;2023-05-23T09:51:42;-16757.94;;;30.95;33.60
65157;BME280;52745;49.794;18.258;2023-05-23T09:54:10;-16757.13;;;30.92;35.33
65157;BME280;52745;49.794;18.258;2023-05-23T09:56:39;-16797.13;;;32.45;32.09
65157;BME280;52745;49.794;18.258;2023-05-23T09:59:10;-16818.84;;;33.28;29.83
65157;BME280;52745;49.794;18.258;2023-05-23T10:01:41;-16830.50;;;33.72;29.76
65157;BME280;52745;49.794;18.258;2023-05-23T10:04:08;-16832.78;;;33.81;29.33
65157;BME280;52745;49.794;18.258;2023-05-23T10:06:44;-16839.19;;;34.06;28.59
65157;BME280;52745;49.794;18.258;2023-05-23T10:09:16;-16827.94;;;33.63;29.07
65157;BME280;52745;49.794;18.258;2023-05-23T10:14:54;-16783.16;;;31.91;32.35
65157;BME280;52745;49.794;18.258;2023-05-23T10:19:59;-16798.06;;;32.48;32.48
65157;BME280;52745;49.794;18.258;2023-05-23T10:22:27;-16768.66;;;31.36;33.52
65157;BME280;52745;49.794;18.258;2023-05-23T10:24:55;-16770.94;;;31.45;33.91
65157;BME280;52745;49.794;18.258;2023-05-23T10:27:22;-16767.72;;;31.32;33.95
65157;BME280;52745;49.794;18.258;2023-05-23T10:29:49;-16730.66;;;29.91;37.34
65157;BME280;52745;49.794;18.258;2023-05-23T10:32:15;-16713.03;;;29.24;38.34
65157;BME280;52745;49.794;18.258;2023-05-23T10:35:00;-16683.56;;;28.12;41.57
65157;BME280;52745;49.794;18.258;2023-05-23T10:37:56;-16670.91;;;27.63;43.42
65157;BME280;52745;49.794;18.258;2023-05-23T10:43:39;-16640.97;;;26.50;46.43
65157;BME280;52745;49.794;18.258;2023-05-23T10:46:13;-16640.84;;;26.49;47.48
65157;BME280;52745;49.794;18.258;2023-05-23T10:48:40;-16634.38;;;26.25;47.22
65157;BME280;52745;49.794;18.258;2023-05-23T10:51:09;-16631.53;;;26.14;48.43
65157;BME280;52745;49.794;18.258;2023-05-23T10:53:45;-16630.88;;;26.11;49.59
65157;BME280;52745;49.794;18.258;2023-05-23T10:56:23;-16629.94;;;26.08;49.82
65157;BME280;52745;49.794;18.258;2023-05-23T10:58:54;-16633.56;;;26.21;49.28
65157;BME280;52745;49.794;18.258;2023-05-23T11:01:21;-16650.81;;;26.87;48.20
65157;BME280;52745;49.794;18.258;2023-05-23T11:03:50;-16667.81;;;27.52;46.83
65157;BME280;52745;49.794;18.258;2023-05-23T11:06:41;-16675.75;;;27.82;46.29
65157;BME280;52745;49.794;18.258;2023-05-23T11:09:12;-16711.69;;;29.19;44.52
65157;BME280;52745;49.794;18.258;2023-05-23T11:12:02;-16712.63;;;29.22;42.28
65157;BME280;52745;49.794;18.258;2023-05-23T11:14:32;-16710.47;;;29.14;42.18
65157;BME280;52745;49.794;18.258;2023-05-23T11:17:01;-16717.59;;;29.41;40.91
65157;BME280;52745;49.794;18.258;2023-05-23T11:19:55;-16710.06;;;29.13;41.72
65157;BME280;52745;49.794;18.258;2023-05-23T11:22:27;-16707.91;;;29.04;42.11
65157;BME280;52745;49.794;18.258;2023-05-23T11:24:56;-16697.44;;;28.64;42.41
65157;BME280;52745;49.794;18.258;2023-05-23T11:27:37;-16699.31;;;28.72;42.28
65157;BME280;52745;49.794;18.258;2023-05-23T11:30:11;-16686.00;;;28.21;42.34
65157;BME280;52745;49.794;18.258;2023-05-23T11:32:51;-16689.63;;;28.35;43.47
65157;BME280;52745;49.794;18.258;2023-05-23T11:35:19;-16683.84;;;28.13;42.83
65157;BME280;52745;49.794;18.258;2023-05-23T11:37:47;-16621.69;;;25.76;49.36
65157;BME280;52745;49.794;18.258;2023-05-23T11:43:12;-16599.44;;;24.92;52.19
65157;BME280;52745;49.794;18.258;2023-05-23T11:45:40;-16607.66;;;25.23;52.81
65157;BME280;52745;49.794;18.258;2023-05-23T11:48:12;-16613.19;;;25.44;51.13
65157;BME280;52745;49.794;18.258;2023-05-23T11:50:49;-16585.78;;;24.40;53.65
65157;BME280;52745;49.794;18.258;2023-05-23T11:53:19;-16595.78;;;24.78;51.59
65157;BME280;52745;49.794;18.258;2023-05-23T11:55:51;-16593.50;;;24.69;52.37
65157;BME280;52745;49.794;18.258;2023-05-23T11:58:20;-16592.81;;;24.67;51.42
65157;BME280;52745;49.794;18.258;2023-05-23T12:00:47;-16588.50;;;24.50;53.06
65157;BME280;52745;49.794;18.258;2023-05-23T12:03:14;-16590.38;;;24.57;51.58
65157;BME280;52745;49.794;18.258;2023-05-23T12:05:42;-16603.63;;;25.08;50.83
65157;BME280;52745;49.794;18.258;2023-05-23T12:08:12;-16600.09;;;24.94;51.13
65157;BME280;52745;49.794;18.258;2023-05-23T12:11:07;-16591.19;;;24.61;50.40
65157;BME280;52745;49.794;18.258;2023-05-23T12:13:34;-16597.28;;;24.84;51.18
65157;BME280;52745;49.794;18.258;2023-05-23T12:16:01;-16558.22;;;23.35;55.03
65157;BME280;52745;49.794;18.258;2023-05-23T12:18:31;-16539.03;;;22.63;59.02
65157;BME280;52745;49.794;18.258;2023-05-23T12:21:01;-16532.53;;;22.38;61.24
65157;BME280;52745;49.794;18.258;2023-05-23T12:23:29;-16511.03;;;21.57;65.44
65157;BME280;52745;49.794;18.258;2023-05-23T12:25:56;-16488.41;;;20.71;67.20
65157;BME280;52745;49.794;18.258;2023-05-23T12:28:40;-16478.13;;;20.32;70.02
65157;BME280;52745;49.794;18.258;2023-05-23T12:31:18;-16480.28;;;20.40;72.46
65157;BME280;52745;49.794;18.258;2023-05-23T12:33:46;-16479.34;;;20.37;71.31
65157;BME280;52745;49.794;18.258;2023-05-23T12:36:13;-16479.34;;;20.37;74.69
65157;BME280;52745;49.794;18.258;2023-05-23T12:38:41;-16481.63;;;20.45;75.83
65157;BME280;52745;49.794;18.258;2023-05-23T12:41:14;-16487.72;;;20.69;75.68
65157;BME280;52745;49.794;18.258;2023-05-23T12:43:53;-16497.50;;;21.05;74.40
65157;BME280;52745;49.794;18.258;2023-05-23T12:46:23;-16491.94;;;20.84;72.24
65157;BME280;52745;49.794;18.258;2023-05-23T12:48:51;-16485.84;;;20.61;72.42
65157;BME280;52745;49.794;18.258;2023-05-23T12:51:19;-16487.19;;;20.66;73.25
65157;BME280;52745;49.794;18.258;2023-05-23T12:53:46;-16492.47;;;20.86;72.93
65157;BME280;52745;49.794;18.258;2023-05-23T12:56:13;-16498.69;;;21.10;74.24
65157;BME280;52745;49.794;18.258;2023-05-23T12:58:40;-16488.00;;;20.70;73.36
65157;BME280;52745;49.794;18.258;2023-05-23T13:01:07;-16487.31;;;20.67;76.43
65157;BME280;52745;49.794;18.258;2023-05-23T13:03:34;-16487.72;;;20.69;73.93
65157;BME280;52745;49.794;18.258;2023-05-23T13:06:01;-16482.84;;;20.50;74.14
65157;BME280;52745;49.794;18.258;2023-05-23T13:08:28;-16484.88;;;20.58;76.03
65157;BME280;52745;49.794;18.258;2023-05-23T13:10:55;-16490.59;;;20.79;74.95
65157;BME280;52745;49.794;18.258;2023-05-23T13:13:22;-16506.81;;;21.41;73.81
65157;BME280;52745;49.794;18.258;2023-05-23T13:15:49;-16514.81;;;21.71;72.39
65157;BME280;52745;49.794;18.258;2023-05-23T13:18:16;-16521.84;;;21.98;69.45
65157;BME280;52745;49.794;18.258;2023-05-23T13:20:43;-16524.97;;;22.09;67.25
65157;BME280;52745;49.794;18.258;2023-05-23T13:23:09;-16527.81;;;22.20;68.48
65157;BME280;52745;49.794;18.258;2023-05-23T13:25:36;-16521.97;;;21.98;68.00
65157;BME280;52745;49.794;18.258;2023-05-23T13:28:03;-16521.16;;;21.95;69.86
65157;BME280;52745;49.794;18.258;2023-05-23T13:30:30;-16521.84;;;21.98;68.91
65157;BME280;52745;49.794;18.258;2023-05-23T13:32:57;-16521.16;;;21.95;69.48
65157;BME280;52745;49.794;18.258;2023-05-23T13:35:24;-16519.00;;;21.87;68.72
65157;BME280;52745;49.794;18.258;2023-05-23T13:37:51;-16511.16;;;21.57;68.54
65157;BME280;52745;49.794;18.258;2023-05-23T13:40:19;-16508.19;;;21.46;69.94
65157;BME280;52745;49.794;18.258;2023-05-23T13:42:47;-16503.84;;;21.29;70.02
65157;BME280;52745;49.794;18.258;2023-05-23T13:45:16;-16500.31;;;21.16;71.21
65157;BME280;52745;49.794;18.258;2023-05-23T13:47:43;-16500.88;;;21.18;69.93
65157;BME280;52745;49.794;18.258;2023-05-23T13:50:10;-16503.97;;;21.30;70.87
65157;BME280;52745;49.794;18.258;2023-05-23T13:52:37;-16505.06;;;21.34;70.26
65157;BME280;52745;49.794;18.258;2023-05-23T13:55:04;-16507.63;;;21.44;70.42
65157;BME280;52745;49.794;18.258;2023-05-23T13:57:31;-16503.97;;;21.30;69.02
65157;BME280;52745;49.794;18.258;2023-05-23T13:59:58;-16500.88;;;21.18;68.68
65157;BME280;52745;49.794;18.258;2023-05-23T14:02:24;-16503.72;;;21.29;69.63
65157;BME280;52745;49.794;18.258;2023-05-23T14:04:52;-16503.03;;;21.26;69.99
65157;BME280;52745;49.794;18.258;2023-05-23T14:07:19;-16501.81;;;21.22;70.79
65157;BME280;52745;49.794;18.258;2023-05-23T14:09:46;-16502.22;;;21.23;70.31
65157;BME280;52745;49.794;18.258;2023-05-23T14:12:12;-16498.97;;;21.11;70.56
65157;BME280;52745;49.794;18.258;2023-05-23T14:14:39;-16498.16;;;21.08;70.15
65157;BME280;52745;49.794;18.258;2023-05-23T14:17:06;-16499.66;;;21.14;70.05
65157;BME280;52745;49.794;18.258;2023-05-23T14:19:32;-16502.63;;;21.25;70.64
65157;BME280;52745;49.794;18.258;2023-05-23T14:21:59;-16506.28;;;21.39;73.68
65157;BME280;52745;49.794;18.258;2023-05-23T14:24:26;-16504.38;;;21.32;72.12